Time;durP1;ratioP1;P1;durP2;ratioP2;P2;SDS_P1;SDS_P2;PMS_P1;PMS_P2;Temp;Humidity;BMP_temperature;BMP_pressure;BME280_temperature;BME280_humidity;BME280_pressure;Samples;Min_cycle;Max_cycle;Signal;HPM_P1;HPM_P2
2022/11/29 00:02:23;;;;;;;5.63;3.30;;;;;;;;;;6120487;23;20105;-59
2022/11/29 00:04:57;;;;;;;6.57;3.58;;;;;;;;;;6120419;23;20025;-59
2022/11/29 00:07:24;;;;;;;6.95;3.50;;;;;;;;;;6119590;23;20371;-54
2022/11/29 00:09:51;;;;;;;4.43;3.35;;;;;;;;;;6118984;23;20026;-52
2022/11/29 00:12:24;;;;;;;5.20;3.67;;;;;;;;;;6115177;23;20048;-63
2022/11/29 00:14:51;;;;;;;4.75;3.30;;;;;;;;;;6120807;23;20018;-63
2022/11/29 00:17:19;;;;;;;5.53;3.67;;;;;;;;;;6118880;23;20098;-63
2022/11/29 00:19:52;;;;;;;4.85;3.28;;;;;;;;;;6118049;23;20474;-65
2022/11/29 00:22:21;;;;;;;4.90;3.67;;;;;;;;;;6121510;23;20448;-63
2022/11/29 00:24:55;;;;;;;5.65;3.42;;;;;;;;;;6117956;23;20022;-63
2022/11/29 00:27:23;;;;;;;6.95;3.85;;;;;;;;;;6119639;23;20032;-59
2022/11/29 00:29:50;;;;;;;5.93;3.33;;;;;;;;;;6119821;23;20029;-59
2022/11/29 00:32:23;;;;;;;5.43;3.47;;;;;;;;;;6119219;23;20084;-59
2022/11/29 00:34:51;;;;;;;6.97;3.72;;;;;;;;;;6118728;23;20105;-59
2022/11/29 00:37:35;;;;;;;6.63;3.85;;;;;;;;;;6118883;23;20469;-59
2022/11/29 00:40:03;;;;;;;5.45;3.55;;;;;;;;;;6118684;23;20026;-59
2022/11/29 00:42:37;;;;;;;4.97;3.03;;;;;;;;;;6119424;23;20018;-59
2022/11/29 00:45:04;;;;;;;5.38;3.33;;;;;;;;;;6119843;23;20104;-59
2022/11/29 00:47:31;;;;;;;4.88;3.10;;;;;;;;;;6119283;23;20030;-64
2022/11/29 00:50:05;;;;;;;6.63;3.38;;;;;;;;;;6118266;23;20044;-63
2022/11/29 00:52:32;;;;;;;;;;;;;;;;;;6118994;23;20355;-64
2022/11/29 00:55:06;;;;;;;6.07;3.38;;;;;;;;;;6120774;23;19984;-63
2022/11/29 00:57:33;;;;;;;;;;;;;;;;;;6121025;23;20057;-64
2022/11/29 01:00:00;;;;;;;4.50;3.25;;;;;;;;;;6118728;23;19920;-63
2022/11/29 01:02:34;;;;;;;4.50;3.45;;;;;;;;;;6119287;23;20025;-64
2022/11/29 01:05:02;;;;;;;4.78;3.20;;;;;;;;;;6118622;23;20121;-54
2022/11/29 01:07:35;;;;;;;6.82;2.90;;;;;;;;;;6119257;23;20034;-54
2022/11/29 01:10:03;;;;;;;4.78;3.25;;;;;;;;;;6119612;23;20400;-55
2022/11/29 01:12:30;;;;;;;3.13;2.25;;;;;;;;;;6119098;23;20817;-55
2022/11/29 01:15:04;;;;;;;4.38;3.47;;;;;;;;;;6118541;23;20022;-54
2022/11/29 01:17:31;;;;;;;4.60;3.50;;;;;;;;;;6119797;23;20018;-57
2022/11/29 01:19:59;;;;;;;4.10;3.15;;;;;;;;;;6119658;23;20026;-55
2022/11/29 01:22:36;;;;;;;4.60;3.00;;;;;;;;;;6119112;23;20093;-52
2022/11/29 01:25:04;;;;;;;4.82;3.38;;;;;;;;;;6119358;23;20032;-60
2022/11/29 01:27:31;;;;;;;;;;;;;;;;;;6120775;23;20022;-53
2022/11/29 01:30:05;;;;;;;5.18;3.38;;;;;;;;;;6119529;23;19917;-55
2022/11/29 01:32:32;;;;;;;4.65;3.05;;;;;;;;;;6118873;23;20096;-53
2022/11/29 01:35:07;;;;;;;6.93;3.38;;;;;;;;;;6120382;23;20105;-56
2022/11/29 01:37:40;;;;;;;5.30;3.45;;;;;;;;;;6119108;23;20026;-52
2022/11/29 01:40:14;;;;;;;4.40;3.50;;;;;;;;;;6118196;23;20371;-54
2022/11/29 01:42:42;;;;;;;5.28;3.60;;;;;;;;;;6119796;23;20028;-54
2022/11/29 01:45:22;;;;;;;5.50;3.67;;;;;;;;;;6118775;23;20411;-50
2022/11/29 01:47:57;;;;;;;5.00;3.40;;;;;;;;;;6120159;23;20101;-66
2022/11/29 01:50:30;;;;;;;7.07;3.63;;;;;;;;;;6118403;23;20022;-67
2022/11/29 01:53:05;;;;;;;6.30;3.78;;;;;;;;;;6121048;23;20096;-66
2022/11/29 01:55:32;;;;;;;;;;;;;;;;;;6119668;23;20471;-66
2022/11/29 01:58:00;;;;;;;6.15;3.90;;;;;;;;;;6120042;23;19991;-66
2022/11/29 02:00:34;;;;;;;6.03;4.32;;;;;;;;;;6117885;23;20026;-66
2022/11/29 02:03:05;;;;;;;6.60;3.88;;;;;;;;;;6117010;23;20531;-65
2022/11/29 02:05:32;;;;;;;4.97;3.47;;;;;;;;;;6117648;23;20033;-55
2022/11/29 02:08:06;;;;;;;5.15;3.15;;;;;;;;;;6120172;23;20101;-53
2022/11/29 02:10:48;;;;;;;6.55;3.80;;;;;;;;;;6118324;23;20049;-57
2022/11/29 02:13:30;;;;;;;5.38;3.60;;;;;;;;;;6118946;23;20128;-56
2022/11/29 02:16:17;;;;;;;4.97;3.17;;;;;;;;;;6118210;23;20022;-55
2022/11/29 02:18:57;;;;;;;5.40;3.95;;;;;;;;;;6119306;23;20093;-54
2022/11/29 02:21:49;;;;;;;6.05;3.83;;;;;;;;;;6118299;23;20114;-54
2022/11/29 02:24:38;;;;;;;8.65;4.28;;;;;;;;;;6117622;23;20044;-66
2022/11/29 02:27:12;;;;;;;6.30;3.22;;;;;;;;;;6119417;23;20037;-66
2022/11/29 02:29:45;;;;;;;8.10;4.05;;;;;;;;;;6118362;23;20030;-65
2022/11/29 02:32:18;;;;;;;9.88;3.90;;;;;;;;;;6118718;23;20562;-66
2022/11/29 02:35:07;;;;;;;5.63;3.47;;;;;;;;;;6118822;23;20044;-66
2022/11/29 02:38:05;;;;;;;6.20;4.03;;;;;;;;;;6117914;23;20022;-65
2022/11/29 02:40:45;;;;;;;6.13;3.88;;;;;;;;;;6117382;23;20028;-55
2022/11/29 02:43:36;;;;;;;6.22;3.92;;;;;;;;;;6119548;23;20032;-60
2022/11/29 02:46:22;;;;;;;5.68;4.00;;;;;;;;;;6117577;23;20032;-59
2022/11/29 02:48:55;;;;;;;7.13;3.90;;;;;;;;;;6119585;23;20026;-60
2022/11/29 02:51:45;;;;;;;5.78;3.95;;;;;;;;;;6119299;23;20105;-60
2022/11/29 02:54:20;;;;;;;5.50;3.78;;;;;;;;;;6119845;23;20584;-59
2022/11/29 02:56:59;;;;;;;6.72;4.15;;;;;;;;;;6118369;23;20057;-60
2022/11/29 02:59:39;;;;;;;6.00;4.20;;;;;;;;;;6120755;23;20101;-60
2022/11/29 03:02:20;;;;;;;6.70;4.47;;;;;;;;;;6119659;23;20108;-65
2022/11/29 03:05:11;;;;;;;6.97;3.95;;;;;;;;;;6120946;23;20538;-65
2022/11/29 03:07:49;;;;;;;6.65;4.40;;;;;;;;;;6120262;23;20036;-65
2022/11/29 03:10:35;;;;;;;6.03;3.92;;;;;;;;;;6119935;23;20030;-65
2022/11/29 03:13:13;;;;;;;6.70;4.30;;;;;;;;;;6120443;23;20056;-65
2022/11/29 03:15:47;;;;;;;7.68;3.90;;;;;;;;;;6120880;23;20068;-64
2022/11/29 03:18:54;;;;;;;7.45;4.00;;;;;;;;;;6118919;23;20045;-53
2022/11/29 03:21:21;;;;;;;7.00;4.70;;;;;;;;;;6056671;23;20044;-54
2022/11/29 03:24:02;;;;;;;5.10;3.78;;;;;;;;;;6119929;23;20113;-54
2022/11/29 03:26:34;;;;;;;6.78;4.03;;;;;;;;;;6118908;23;20093;-54
2022/11/29 03:29:16;;;;;;;6.82;3.75;;;;;;;;;;6120411;23;20071;-54
2022/11/29 03:31:47;;;;;;;9.18;3.90;;;;;;;;;;6119606;23;20025;-53
2022/11/29 03:34:25;;;;;;;4.55;3.28;;;;;;;;;;6095876;23;20480;-52
2022/11/29 03:37:04;;;;;;;5.80;4.10;;;;;;;;;;6120221;23;20029;-52
2022/11/29 03:39:59;;;;;;;6.10;4.25;;;;;;;;;;6119860;23;20097;-54
2022/11/29 03:42:30;;;;;;;6.55;3.90;;;;;;;;;;6120794;23;20100;-46
2022/11/29 03:45:03;;;;;;;5.40;3.65;;;;;;;;;;6121378;23;20021;-45
2022/11/29 03:47:35;;;;;;;6.97;4.28;;;;;;;;;;6120872;23;20422;-47
2022/11/29 03:50:09;;;;;;;;;;;;;;;;;;6120915;23;20033;-44
2022/11/29 03:52:48;;;;;;;7.65;3.97;;;;;;;;;;6120983;23;19995;-45
2022/11/29 03:55:42;;;;;;;9.77;4.63;;;;;;;;;;6120032;23;20022;-60
2022/11/29 03:58:28;;;;;;;6.00;4.03;;;;;;;;;;6094986;23;20022;-53
2022/11/29 04:01:04;;;;;;;7.35;3.90;;;;;;;;;;6119705;23;20017;-59
2022/11/29 04:03:40;;;;;;;6.40;4.28;;;;;;;;;;6120874;23;20399;-59
2022/11/29 04:06:18;;;;;;;7.95;4.15;;;;;;;;;;6096743;23;20124;-59
2022/11/29 04:08:55;;;;;;;7.07;4.57;;;;;;;;;;6120151;23;20022;-59
2022/11/29 04:11:32;;;;;;;7.28;4.45;;;;;;;;;;6117796;23;20018;-60
2022/11/29 04:14:08;;;;;;;8.77;4.82;;;;;;;;;;6117790;23;20042;-59
2022/11/29 04:16:55;;;;;;;7.65;4.97;;;;;;;;;;6118666;23;20558;-59
2022/11/29 04:19:34;;;;;;;7.95;4.90;;;;;;;;;;6119251;23;20022;-55
2022/11/29 04:22:15;;;;;;;8.50;5.30;;;;;;;;;;6120111;23;20105;-55
2022/11/29 04:25:01;;;;;;;9.27;5.45;;;;;;;;;;6120081;23;20769;-51
2022/11/29 04:27:35;;;;;;;11.13;5.18;;;;;;;;;;6119207;23;20032;-53
2022/11/29 04:30:02;;;;;;;10.70;6.03;;;;;;;;;;6119081;23;20089;-53
2022/11/29 04:32:47;;;;;;;9.15;5.57;;;;;;;;;;6119900;23;20041;-56
2022/11/29 04:35:24;;;;;;;10.40;6.53;;;;;;;;;;6118873;23;20030;-59
2022/11/29 04:38:23;;;;;;;12.60;7.13;;;;;;;;;;6118938;23;20503;-59
2022/11/29 04:41:13;;;;;;;15.50;6.85;;;;;;;;;;6118499;23;20026;-59
2022/11/29 04:43:58;;;;;;;13.73;7.88;;;;;;;;;;6119507;23;20555;-59
2022/11/29 04:46:45;;;;;;;17.05;9.27;;;;;;;;;;6118548;23;20026;-60
2022/11/29 04:49:31;;;;;;;16.23;8.98;;;;;;;;;;6119037;23;20028;-59
2022/11/29 04:52:14;;;;;;;16.15;9.23;;;;;;;;;;6118965;23;20419;-59
2022/11/29 04:54:59;;;;;;;20.30;10.40;;;;;;;;;;6118244;23;20057;-65
2022/11/29 04:57:38;;;;;;;19.38;10.63;;;;;;;;;;6120066;23;20029;-54
2022/11/29 05:00:08;;;;;;;21.15;11.13;;;;;;;;;;6119680;23;20026;-54
2022/11/29 05:02:56;;;;;;;19.13;11.27;;;;;;;;;;6117968;23;20030;-54
2022/11/29 05:05:37;;;;;;;22.98;12.52;;;;;;;;;;6120275;23;20025;-54
2022/11/29 05:08:24;;;;;;;22.55;11.63;;;;;;;;;;6119401;23;20030;-57
2022/11/29 05:11:04;;;;;;;23.23;11.88;;;;;;;;;;6119348;23;20325;-54
2022/11/29 05:13:44;;;;;;;22.65;12.38;;;;;;;;;;6117447;23;20105;-46
2022/11/29 05:16:41;;;;;;;23.13;11.52;;;;;;;;;;6117021;23;20018;-65
2022/11/29 05:19:17;;;;;;;17.98;10.77;;;;;;;;;;6119590;23;20359;-64
2022/11/29 05:22:10;;;;;;;21.55;11.25;;;;;;;;;;6119275;23;20022;-64
2022/11/29 05:24:41;;;;;;;20.98;10.80;;;;;;;;;;6118106;23;20028;-65
2022/11/29 05:27:33;;;;;;;21.17;12.00;;;;;;;;;;6114947;23;20032;-64
2022/11/29 05:30:01;;;;;;;25.20;12.55;;;;;;;;;;6116832;23;20025;-64
2022/11/29 05:32:46;;;;;;;21.17;12.45;;;;;;;;;;6120109;23;20064;-53
2022/11/29 05:35:14;;;;;;;20.85;12.18;;;;;;;;;;6119562;23;20022;-48
2022/11/29 05:37:54;;;;;;;20.80;12.05;;;;;;;;;;6115575;23;20415;-46
2022/11/29 05:40:39;;;;;;;19.88;11.88;;;;;;;;;;6117095;23;20052;-46
2022/11/29 05:43:32;;;;;;;19.05;11.27;;;;;;;;;;6113927;23;20476;-46
2022/11/29 05:46:08;;;;;;;21.30;11.68;;;;;;;;;;6118282;23;20032;-46
2022/11/29 05:48:50;;;;;;;20.70;11.95;;;;;;;;;;6117253;23;20025;-46
2022/11/29 05:51:20;;;;;;;20.42;11.07;;;;;;;;;;6115906;23;20057;-46
2022/11/29 05:54:13;;;;;;;18.67;11.45;;;;;;;;;;6119663;23;20018;-59
2022/11/29 05:56:56;;;;;;;20.10;10.52;;;;;;;;;;6117962;23;20033;-59
2022/11/29 05:59:30;;;;;;;19.42;10.60;;;;;;;;;;6117624;23;20101;-59
2022/11/29 06:02:16;;;;;;;21.02;10.70;;;;;;;;;;6119618;23;20473;-59
2022/11/29 06:04:56;;;;;;;17.38;10.70;;;;;;;;;;6118955;23;20081;-58
2022/11/29 06:07:29;;;;;;;17.67;9.55;;;;;;;;;;6119028;23;20026;-59
2022/11/29 06:10:16;;;;;;;16.52;9.30;;;;;;;;;;6119860;23;20573;-59
2022/11/29 06:12:48;;;;;;;19.13;11.55;;;;;;;;;;6118391;23;20045;-47
2022/11/29 06:15:55;;;;;;;17.35;10.65;;;;;;;;;;6118030;23;20032;-47
2022/11/29 06:18:25;;;;;;;16.83;9.25;;;;;;;;;;6041726;23;20032;-50
2022/11/29 06:21:13;;;;;;;16.52;9.50;;;;;;;;;;6118312;23;20100;-47
2022/11/29 06:23:50;;;;;;;17.77;9.88;;;;;;;;;;6120971;23;20614;-45
2022/11/29 06:26:23;;;;;;;18.40;10.35;;;;;;;;;;6121255;23;20100;-46
2022/11/29 06:29:00;;;;;;;16.27;9.52;;;;;;;;;;6120297;23;20034;-53
2022/11/29 06:31:43;;;;;;;16.38;9.90;;;;;;;;;;6121320;23;20044;-52
2022/11/29 06:34:22;;;;;;;16.67;9.52;;;;;;;;;;6121990;23;20137;-55
2022/11/29 06:37:07;;;;;;;16.55;9.65;;;;;;;;;;6122183;23;20089;-52
2022/11/29 06:39:41;;;;;;;15.18;9.10;;;;;;;;;;6120813;23;20026;-55
2022/11/29 06:42:15;;;;;;;15.65;9.38;;;;;;;;;;6121963;23;20024;-54
2022/11/29 06:44:43;;;;;;;;;;;;;;;;;;6122440;23;20072;-53
2022/11/29 06:47:17;;;;;;;15.95;9.07;;;;;;;;;;6122451;23;20004;-61
2022/11/29 06:49:50;;;;;;;15.05;9.07;;;;;;;;;;6119242;23;20037;-64
2022/11/29 06:52:42;;;;;;;13.30;8.30;;;;;;;;;;6121466;23;20097;-45
2022/11/29 06:55:22;;;;;;;14.07;8.95;;;;;;;;;;6095957;23;20018;-45
2022/11/29 06:58:01;;;;;;;14.07;8.80;;;;;;;;;;6119176;23;20101;-46
2022/11/29 07:00:36;;;;;;;15.10;8.75;;;;;;;;;;6121364;23;20025;-46
2022/11/29 07:03:29;;;;;;;15.10;8.25;;;;;;;;;;6121450;23;20018;-46
2022/11/29 07:05:57;;;;;;;13.50;8.63;;;;;;;;;;6095359;23;20022;-58
2022/11/29 07:08:30;;;;;;;11.32;7.18;;;;;;;;;;6119854;23;20539;-65
2022/11/29 07:11:05;;;;;;;14.30;8.65;;;;;;;;;;6121362;23;20117;-45
2022/11/29 07:13:32;;;;;;;12.30;8.02;;;;;;;;;;6120089;23;20089;-47
2022/11/29 07:16:26;;;;;;;11.80;7.97;;;;;;;;;;6118722;23;20026;-46
2022/11/29 07:18:59;;;;;;;12.13;8.02;;;;;;;;;;6119917;23;20092;-45
2022/11/29 07:21:44;;;;;;;11.27;7.38;;;;;;;;;;6119613;23;20032;-45
2022/11/29 07:24:27;;;;;;;10.63;6.85;;;;;;;;;;6120905;23;20021;-46
2022/11/29 07:27:07;;;;;;;14.20;7.68;;;;;;;;;;6120011;23;20492;-53
2022/11/29 07:29:42;;;;;;;11.45;7.07;;;;;;;;;;6120026;23;20026;-64
2022/11/29 07:32:45;;;;;;;10.77;6.97;;;;;;;;;;6120280;23;20022;-64
2022/11/29 07:35:25;;;;;;;;;;;;;;;;;;6105428;23;20037;-64
2022/11/29 07:38:12;;;;;;;10.85;5.57;;;;;;;;;;6121265;23;19917;-64
2022/11/29 07:40:51;;;;;;;10.77;6.78;;;;;;;;;;6120026;23;20061;-64
2022/11/29 07:43:37;;;;;;;11.63;7.03;;;;;;;;;;6120709;23;20101;-65
2022/11/29 07:46:04;;;;;;;12.15;7.05;;;;;;;;;;6120957;23;20493;-52
2022/11/29 07:48:38;;;;;;;11.93;6.95;;;;;;;;;;6119841;23;20026;-59
2022/11/29 07:51:05;;;;;;;10.27;7.07;;;;;;;;;;6119908;23;20114;-61
2022/11/29 07:53:33;;;;;;;11.07;7.07;;;;;;;;;;6120912;23;20050;-59
2022/11/29 07:56:08;;;;;;;14.95;7.63;;;;;;;;;;6119467;23;20030;-59
2022/11/29 07:58:35;;;;;;;12.27;7.88;;;;;;;;;;6120402;23;20099;-60
2022/11/29 08:01:03;;;;;;;11.15;7.78;;;;;;;;;;6120048;23;20022;-59
2022/11/29 08:03:37;;;;;;;12.35;7.80;;;;;;;;;;6121001;23;20026;-59
2022/11/29 08:06:04;;;;;;;13.60;8.18;;;;;;;;;;6118938;23;20021;-57
2022/11/29 08:08:37;;;;;;;12.13;7.38;;;;;;;;;;6121704;23;20068;-55
2022/11/29 08:11:13;;;;;;;13.15;7.82;;;;;;;;;;6120076;23;20026;-49
2022/11/29 08:13:47;;;;;;;14.05;8.35;;;;;;;;;;6119155;23;20343;-54
2022/11/29 08:16:17;;;;;;;13.57;8.27;;;;;;;;;;6118934;23;20024;-53
2022/11/29 08:18:45;;;;;;;14.02;8.57;;;;;;;;;;6120041;23;20058;-54
2022/11/29 08:21:22;;;;;;;15.93;9.13;;;;;;;;;;6118696;23;20022;-53
2022/11/29 08:23:49;;;;;;;13.35;8.32;;;;;;;;;;6120585;23;20026;-64
2022/11/29 08:26:24;;;;;;;15.45;9.25;;;;;;;;;;6118670;23;20024;-58
2022/11/29 08:28:57;;;;;;;16.05;9.45;;;;;;;;;;6119959;23;20114;-55
2022/11/29 08:31:31;;;;;;;18.80;10.57;;;;;;;;;;6119566;23;20028;-57
2022/11/29 08:33:58;;;;;;;;;;;;;;;;;;6120887;23;20032;-55
2022/11/29 08:36:25;;;;;;;15.77;10.00;;;;;;;;;;6119811;23;19916;-55
2022/11/29 08:39:05;;;;;;;17.27;10.57;;;;;;;;;;6120014;23;20018;-58
2022/11/29 08:41:35;;;;;;;19.35;10.13;;;;;;;;;;6119395;23;20026;-59
2022/11/29 08:44:09;;;;;;;21.00;11.25;;;;;;;;;;6121055;23;20025;-60
2022/11/29 08:49:29;;;;;;;17.10;10.32;;;;;;;;;;6119834;23;20032;-56
2022/11/29 08:53:40;;;;;;;21.48;11.13;;;;;;;;;;6119058;23;20410;-57
2022/11/29 08:54:50;;;;;;;20.95;11.07;;;;;;;;;;6119367;23;20354;-56
2022/11/29 08:57:17;;;;;;;21.30;12.40;;;;;;;;;;6119511;23;20502;-56
2022/11/29 09:00:05;;;;;;;22.35;11.93;;;;;;;;;;6118685;23;20026;-66
2022/11/29 09:02:39;;;;;;;23.50;11.70;;;;;;;;;;6119388;23;20486;-60
2022/11/29 09:05:07;;;;;;;22.88;11.63;;;;;;;;;;6119517;23;20025;-58
2022/11/29 09:07:41;;;;;;;23.92;11.85;;;;;;;;;;6119010;23;20486;-54
2022/11/29 09:10:09;;;;;;;22.00;11.48;;;;;;;;;;6119286;23;20102;-56
2022/11/29 09:12:36;;;;;;;;;;;;;;;;;;6120632;23;20017;-56
2022/11/29 09:15:10;;;;;;;20.38;10.75;;;;;;;;;;6118740;23;19927;-58
2022/11/29 09:17:37;;;;;;;23.98;12.88;;;;;;;;;;6120047;23;20442;-55
2022/11/29 09:20:12;;;;;;;20.60;12.27;;;;;;;;;;6119143;23;20028;-62
2022/11/29 09:22:39;;;;;;;19.08;12.30;;;;;;;;;;6119527;23;20076;-61
2022/11/29 09:25:06;;;;;;;22.50;11.73;;;;;;;;;;6120341;23;20101;-61
2022/11/29 09:27:40;;;;;;;24.52;12.63;;;;;;;;;;6118993;23;20479;-62
2022/11/29 09:30:08;;;;;;;20.17;11.45;;;;;;;;;;6118347;23;20076;-62
2022/11/29 09:32:49;;;;;;;24.27;12.27;;;;;;;;;;6118447;23;20037;-61
2022/11/29 09:35:16;;;;;;;26.23;11.88;;;;;;;;;;6119904;23;20022;-62
2022/11/29 09:37:56;;;;;;;18.83;11.13;;;;;;;;;;6117562;23;20132;-62
2022/11/29 09:40:51;;;;;;;20.23;12.23;;;;;;;;;;6118413;23;20493;-65
2022/11/29 09:43:30;;;;;;;24.15;12.02;;;;;;;;;;6120161;23;20101;-51
2022/11/29 09:46:16;;;;;;;19.27;11.60;;;;;;;;;;6119151;23;20100;-50
2022/11/29 09:49:02;;;;;;;19.00;11.05;;;;;;;;;;6119343;23;20081;-52
2022/11/29 09:51:56;;;;;;;18.05;10.82;;;;;;;;;;6118133;23;20032;-54
2022/11/29 09:54:26;;;;;;;22.55;10.93;;;;;;;;;;6094490;23;20939;-54
2022/11/29 09:57:02;;;;;;;18.17;11.15;;;;;;;;;;6117986;23;20025;-54
2022/11/29 09:59:38;;;;;;;24.25;11.95;;;;;;;;;;6120068;23;20090;-56
2022/11/29 10:02:16;;;;;;;20.45;11.85;;;;;;;;;;6118255;23;20022;-62
2022/11/29 10:05:00;;;;;;;20.50;12.23;;;;;;;;;;6118195;23;20076;-62
2022/11/29 10:07:38;;;;;;;22.35;12.27;;;;;;;;;;6119673;23;20404;-62
2022/11/29 10:10:13;;;;;;;19.90;11.48;;;;;;;;;;6119587;23;20022;-61
2022/11/29 10:12:50;;;;;;;18.90;10.65;;;;;;;;;;6117967;23;20092;-62
2022/11/29 10:15:22;;;;;;;20.15;11.05;;;;;;;;;;6119692;23;20022;-62
2022/11/29 10:17:55;;;;;;;20.50;10.60;;;;;;;;;;6120076;23;20024;-57
2022/11/29 10:20:25;;;;;;;18.52;11.18;;;;;;;;;;6118018;23;20032;-58
2022/11/29 10:23:11;;;;;;;18.85;10.75;;;;;;;;;;6119570;23;20030;-58
2022/11/29 10:25:46;;;;;;;21.17;11.57;;;;;;;;;;6092871;23;20106;-58
2022/11/29 10:28:29;;;;;;;18.05;10.27;;;;;;;;;;6119165;23;20124;-58
2022/11/29 10:30:59;;;;;;;22.42;11.20;;;;;;;;;;6119508;23;20061;-55
2022/11/29 10:33:35;;;;;;;19.40;10.32;;;;;;;;;;6118270;23;20341;-56
2022/11/29 10:36:04;;;;;;;18.65;11.00;;;;;;;;;;6119601;23;20022;-62
2022/11/29 10:38:32;;;;;;;15.65;9.23;;;;;;;;;;6118815;23;20050;-62
2022/11/29 10:41:18;;;;;;;24.30;11.20;;;;;;;;;;6118007;23;20036;-57
2022/11/29 10:43:45;;;;;;;16.30;10.15;;;;;;;;;;6119744;23;20375;-56
2022/11/29 10:46:30;;;;;;;18.58;10.60;;;;;;;;;;6117984;23;20101;-57
2022/11/29 10:48:58;;;;;;;19.48;9.80;;;;;;;;;;6118436;23;20128;-56
2022/11/29 10:51:33;;;;;;;17.73;10.75;;;;;;;;;;6118489;23;20121;-58
2022/11/29 10:54:19;;;;;;;20.98;11.07;;;;;;;;;;6119189;23;20060;-55
2022/11/29 10:56:53;;;;;;;17.42;10.50;;;;;;;;;;6118737;23;20017;-62
2022/11/29 10:59:22;;;;;;;15.38;9.32;;;;;;;;;;6118743;23;20101;-63
2022/11/29 11:01:50;;;;;;;19.05;11.45;;;;;;;;;;6118073;23;20040;-65
2022/11/29 11:04:34;;;;;;;18.23;10.25;;;;;;;;;;6118092;23;20367;-65
2022/11/29 11:07:20;;;;;;;20.27;10.63;;;;;;;;;;6119404;23;20025;-65
2022/11/29 11:09:49;;;;;;;15.85;9.63;;;;;;;;;;6119770;23;20494;-65
2022/11/29 11:12:25;;;;;;;18.88;9.95;;;;;;;;;;6119703;23;20040;-65
2022/11/29 11:15:12;;;;;;;17.70;10.00;;;;;;;;;;6120402;23;20095;-61
2022/11/29 11:17:56;;;;;;;18.38;9.88;;;;;;;;;;6120351;23;20030;-59
2022/11/29 11:20:25;;;;;;;15.55;7.35;;;;;;;;;;6120847;23;20026;-60
2022/11/29 11:23:01;;;;;;;20.17;9.30;;;;;;;;;;6121613;23;20479;-59
2022/11/29 11:25:30;;;;;;;19.35;9.50;;;;;;;;;;6120417;23;20081;-59
2022/11/29 11:28:23;;;;;;;16.95;9.90;;;;;;;;;;6120576;23;20423;-60
2022/11/29 11:30:55;;;;;;;18.48;9.73;;;;;;;;;;6122026;23;20056;-60
2022/11/29 11:33:31;;;;;;;21.40;10.52;;;;;;;;;;6119002;23;20065;-46
2022/11/29 11:36:01;;;;;;;19.23;10.00;;;;;;;;;;6121380;23;20045;-54
2022/11/29 11:38:55;;;;;;;21.63;10.40;;;;;;;;;;6120706;23;20030;-51
2022/11/29 11:42:35;;;;;;;21.67;9.52;;;;;;;;;;6120882;23;20249;-46
2022/11/29 11:44:19;;;;;;;18.20;9.25;;;;;;;;;;6120796;23;20543;-46
2022/11/29 11:47:18;;;;;;;17.85;9.80;;;;;;;;;;6120605;23;20025;-47
2022/11/29 11:50:03;;;;;;;19.55;10.18;;;;;;;;;;6120398;23;20405;-46
2022/11/29 11:52:36;;;;;;;18.88;10.05;;;;;;;;;;6121068;23;20347;-62
2022/11/29 11:55:35;;;;;;;18.73;9.98;;;;;;;;;;6121410;23;20026;-59
2022/11/29 11:58:11;;;;;;;20.98;10.20;;;;;;;;;;6121414;23;20108;-57
2022/11/29 12:00:52;;;;;;;22.45;10.93;;;;;;;;;;6120709;23;20928;-58
2022/11/29 12:03:53;;;;;;;23.13;11.13;;;;;;;;;;6119840;23;20032;-59
2022/11/29 12:06:28;;;;;;;16.45;9.52;;;;;;;;;;6118982;23;20028;-58
2022/11/29 12:09:00;;;;;;;17.08;9.43;;;;;;;;;;6120340;23;20036;-58
2022/11/29 12:11:45;;;;;;;21.00;10.15;;;;;;;;;;6095737;23;20486;-65
2022/11/29 12:14:17;;;;;;;18.05;9.93;;;;;;;;;;6120023;23;20028;-53
2022/11/29 12:16:54;;;;;;;19.20;10.40;;;;;;;;;;6118550;23;20040;-49
2022/11/29 12:19:24;;;;;;;16.48;9.60;;;;;;;;;;6119463;23;20025;-55
2022/11/29 12:22:01;;;;;;;19.85;9.90;;;;;;;;;;6119928;23;20032;-54
2022/11/29 12:24:38;;;;;;;17.73;9.38;;;;;;;;;;6118066;23;20026;-53
2022/11/29 12:27:14;;;;;;;17.90;9.85;;;;;;;;;;6120562;23;20022;-51
2022/11/29 12:29:41;;;;;;;15.20;9.48;;;;;;;;;;6120248;23;20029;-64
2022/11/29 12:32:23;;;;;;;17.63;10.18;;;;;;;;;;6118335;23;20112;-62
2022/11/29 12:34:58;;;;;;;16.10;9.30;;;;;;;;;;6120567;23;20026;-58
2022/11/29 12:37:53;;;;;;;19.20;9.57;;;;;;;;;;6119808;23;20022;-57
2022/11/29 12:40:33;;;;;;;18.55;10.52;;;;;;;;;;6090632;23;20022;-57
2022/11/29 12:43:22;;;;;;;17.73;8.63;;;;;;;;;;6091535;23;20028;-58
2022/11/29 12:46:03;;;;;;;13.65;9.38;;;;;;;;;;6089520;23;20030;-58
2022/11/29 12:48:55;;;;;;;17.30;9.68;;;;;;;;;;6090470;23;20022;-51
2022/11/29 12:51:27;;;;;;;15.93;9.35;;;;;;;;;;6091955;23;20022;-60
2022/11/29 12:54:04;;;;;;;14.40;8.85;;;;;;;;;;6091375;23;20105;-62
2022/11/29 12:56:37;;;;;;;14.55;8.45;;;;;;;;;;6089844;23;20023;-63
2022/11/29 12:59:19;;;;;;;17.05;8.50;;;;;;;;;;6090497;23;20023;-63
2022/11/29 13:01:49;;;;;;;13.25;7.60;;;;;;;;;;6089503;23;20046;-63
2022/11/29 13:04:36;;;;;;;14.85;8.05;;;;;;;;;;6090060;23;20019;-62
2022/11/29 13:07:22;;;;;;;14.15;8.88;;;;;;;;;;6090501;23;20559;-63
2022/11/29 13:10:14;;;;;;;12.50;7.63;;;;;;;;;;6090191;23;20077;-61
2022/11/29 13:12:46;;;;;;;13.23;8.30;;;;;;;;;;6089606;23;20497;-49
2022/11/29 13:15:21;;;;;;;14.60;8.50;;;;;;;;;;6090475;23;20069;-51
2022/11/29 13:17:55;;;;;;;16.00;8.60;;;;;;;;;;6089845;23;20565;-51
2022/11/29 13:20:32;;;;;;;14.90;8.32;;;;;;;;;;6089985;23;20495;-51
2022/11/29 13:23:06;;;;;;;15.57;8.45;;;;;;;;;;6090169;23;20138;-50
2022/11/29 13:25:42;;;;;;;14.32;8.18;;;;;;;;;;6089484;23;20101;-54
2022/11/29 13:28:20;;;;;;;12.73;8.05;;;;;;;;;;6089774;23;20022;-46
2022/11/29 13:30:59;;;;;;;13.68;7.93;;;;;;;;;;6089437;23;20361;-63
2022/11/29 13:33:40;;;;;;;14.32;8.23;;;;;;;;;;6089724;23;20022;-63
2022/11/29 13:36:22;;;;;;;14.38;8.18;;;;;;;;;;6090745;23;20509;-62
2022/11/29 13:39:09;;;;;;;19.45;8.43;;;;;;;;;;6103989;23;20054;-63
2022/11/29 13:41:46;;;;;;;12.18;7.70;;;;;;;;;;6119660;23;20105;-62
2022/11/29 13:44:24;;;;;;;12.35;8.50;;;;;;;;;;6120810;23;20022;-63
2022/11/29 13:47:02;;;;;;;12.00;7.35;;;;;;;;;;6117119;23;20033;-52
2022/11/29 13:49:52;;;;;;;14.80;8.30;;;;;;;;;;6119097;23;20554;-57
2022/11/29 13:52:38;;;;;;;14.15;8.18;;;;;;;;;;6119435;23;20036;-56
2022/11/29 13:55:17;;;;;;;13.80;8.18;;;;;;;;;;6119281;23;20101;-56
2022/11/29 13:58:02;;;;;;;14.18;7.25;;;;;;;;;;6119767;23;20022;-56
2022/11/29 14:00:44;;;;;;;15.07;8.30;;;;;;;;;;6119212;23;20034;-56
2022/11/29 14:03:18;;;;;;;15.90;8.32;;;;;;;;;;6094348;23;20022;-57
2022/11/29 14:06:03;;;;;;;13.80;8.57;;;;;;;;;;6119843;23;20041;-66
2022/11/29 14:08:39;;;;;;;15.20;7.63;;;;;;;;;;6119026;23;20101;-58
2022/11/29 14:11:42;;;;;;;13.02;8.10;;;;;;;;;;6118239;23;20112;-53
2022/11/29 14:14:16;;;;;;;15.05;7.32;;;;;;;;;;6120150;23;20026;-57
2022/11/29 14:17:03;;;;;;;12.38;7.78;;;;;;;;;;6118584;23;20080;-57
2022/11/29 14:19:44;;;;;;;13.90;7.82;;;;;;;;;;6120103;23;20026;-58
2022/11/29 14:22:19;;;;;;;12.27;7.53;;;;;;;;;;6118244;23;20064;-56
2022/11/29 14:24:57;;;;;;;11.93;7.35;;;;;;;;;;6119598;23;20518;-59
2022/11/29 14:27:25;;;;;;;13.63;7.85;;;;;;;;;;6119133;23;20487;-51
2022/11/29 14:29:58;;;;;;;13.00;8.27;;;;;;;;;;6118845;23;20113;-63
2022/11/29 14:32:26;;;;;;;12.00;7.63;;;;;;;;;;6118383;23;20018;-62
2022/11/29 14:34:59;;;;;;;16.13;7.55;;;;;;;;;;6120070;23;20026;-63
2022/11/29 14:37:46;;;;;;;11.70;7.03;;;;;;;;;;6117731;23;20089;-62
2022/11/29 14:40:35;;;;;;;12.55;7.30;;;;;;;;;;6119214;23;20022;-63
2022/11/29 14:43:14;;;;;;;14.65;6.85;;;;;;;;;;6118889;23;20022;-51
2022/11/29 14:46:06;;;;;;;12.95;7.38;;;;;;;;;;6120553;23;20063;-57
2022/11/29 14:48:33;;;;;;;10.13;7.03;;;;;;;;;;6121251;23;20030;-61
2022/11/29 14:51:09;;;;;;;9.95;6.57;;;;;;;;;;6121944;23;20024;-61
2022/11/29 14:53:37;;;;;;;11.88;7.55;;;;;;;;;;6120401;23;20026;-62
2022/11/29 14:56:29;;;;;;;12.25;7.25;;;;;;;;;;6121197;23;20060;-61
2022/11/29 14:59:15;;;;;;;14.18;7.30;;;;;;;;;;6120021;23;20104;-61
2022/11/29 15:01:49;;;;;;;13.07;7.35;;;;;;;;;;6120432;23;20026;-61
2022/11/29 15:04:16;;;;;;;11.93;7.05;;;;;;;;;;6120384;23;20108;-59
2022/11/29 15:06:50;;;;;;;12.25;7.03;;;;;;;;;;6119762;23;20022;-61
2022/11/29 15:09:20;;;;;;;12.32;7.55;;;;;;;;;;6120615;23;20025;-61
2022/11/29 15:12:02;;;;;;;10.85;6.90;;;;;;;;;;6121058;23;20026;-61
2022/11/29 15:14:47;;;;;;;10.38;7.07;;;;;;;;;;6121117;23;20105;-60
2022/11/29 15:17:41;;;;;;;11.60;7.28;;;;;;;;;;6120444;23;20100;-61
2022/11/29 15:20:26;;;;;;;21.58;7.40;;;;;;;;;;6121487;23;20032;-60
2022/11/29 15:23:02;;;;;;;14.90;7.45;;;;;;;;;;6120921;23;20029;-60
2022/11/29 15:25:31;;;;;;;13.95;7.53;;;;;;;;;;6120703;23;20132;-47
2022/11/29 15:28:05;;;;;;;14.52;7.10;;;;;;;;;;6121473;23;20337;-46
2022/11/29 15:30:37;;;;;;;13.50;7.68;;;;;;;;;;6121394;23;20025;-48
2022/11/29 15:33:10;;;;;;;;;;;;;;;;;;6121651;23;20028;-47
2022/11/29 15:35:38;;;;;;;11.43;6.70;;;;;;;;;;6120902;23;19917;-48
2022/11/29 15:38:05;;;;;;;13.02;7.13;;;;;;;;;;6119904;23;20032;-47